Time;durP1;ratioP1;P1;durP2;ratioP2;P2;SDS_P1;SDS_P2;PMS_P1;PMS_P2;Temp;Humidity;BMP_temperature;BMP_pressure;BME280_temperature;BME280_humidity;BME280_pressure;Samples;Min_cycle;Max_cycle;Signal;HPM_P1;HPM_P2
2023/04/10 00:00:52;;;;;;;13.70;8.88;;;;;;;6.88;89.28;102121.53;5053971;28;20017;-73
2023/04/10 00:03:18;;;;;;;15.60;9.70;;;;;;;6.81;88.97;102104.66;5054072;28;20082;-73
2023/04/10 00:05:43;;;;;;;15.65;9.93;;;;;;;6.76;88.73;102097.06;5053920;28;20025;-73
2023/04/10 00:08:09;;;;;;;13.82;9.75;;;;;;;6.80;88.47;102090.97;5053776;28;20417;-74
2023/04/10 00:10:34;;;;;;;14.10;10.20;;;;;;;6.87;89.04;102097.59;5053945;28;20033;-74
2023/04/10 00:12:59;;;;;;;14.50;9.48;;;;;;;6.86;88.96;102089.94;5036255;28;20121;-73
2023/04/10 00:15:25;;;;;;;14.75;10.02;;;;;;;6.78;89.14;102066.19;5053916;28;20125;-74
2023/04/10 00:17:53;;;;;;;13.75;9.95;;;;;;;6.84;88.78;102082.28;5053842;28;20029;-74
2023/04/10 00:20:22;;;;;;;13.25;8.68;;;;;;;6.85;88.57;102083.13;5053786;28;20385;-74
2023/04/10 00:22:48;;;;;;;14.57;9.55;;;;;;;6.87;88.11;102089.06;5053400;28;20091;-74
2023/04/10 00:25:13;;;;;;;14.30;10.00;;;;;;;6.83;87.97;102067.78;5053342;28;20028;-74
2023/04/10 00:27:39;;;;;;;14.38;10.07;;;;;;;6.79;88.93;102065.34;5053614;28;20094;-74
2023/04/10 00:30:05;;;;;;;14.80;10.15;;;;;;;6.87;88.47;102073.66;5053493;28;20025;-75
2023/04/10 00:32:30;;;;;;;13.95;10.20;;;;;;;6.86;88.14;102066.84;5053586;28;20060;-74
2023/04/10 00:34:56;;;;;;;14.63;9.88;;;;;;;6.83;88.82;102060.06;5053535;28;20025;-77
2023/04/10 00:37:21;;;;;;;13.23;9.50;;;;;;;6.83;88.33;102062.63;5053395;28;20033;-75
2023/04/10 00:39:46;;;;;;;14.30;10.00;;;;;;;6.67;88.00;102033.13;5053323;28;20029;-75
2023/04/10 00:42:12;;;;;;;13.95;9.55;;;;;;;6.81;87.98;102053.28;5052989;28;20112;-75
2023/04/10 00:44:37;;;;;;;13.07;9.13;;;;;;;6.82;87.94;102060.13;5053316;28;20082;-74
2023/04/10 00:47:04;;;;;;;14.02;9.55;;;;;;;6.82;88.19;102048.13;5053328;28;20051;-75
2023/04/10 00:49:30;;;;;;;14.50;9.70;;;;;;;6.78;87.48;102041.38;5052086;28;20056;-74
2023/04/10 00:51:55;;;;;;;12.18;8.45;;;;;;;6.83;87.71;102054.94;5053187;28;20025;-74
2023/04/10 00:54:24;;;;;;;17.13;10.00;;;;;;;6.80;87.87;102039.63;5053141;28;20078;-74
2023/04/10 00:56:49;;;;;;;13.65;9.45;;;;;;;6.83;87.21;102049.78;5052594;28;20025;-74
2023/04/10 00:59:15;;;;;;;14.15;9.32;;;;;;;6.82;87.26;102047.28;5052830;28;20045;-74
2023/04/10 01:01:40;;;;;;;13.63;9.82;;;;;;;6.77;87.31;102033.72;5052946;28;20037;-74
2023/04/10 01:04:07;;;;;;;13.07;8.98;;;;;;;6.79;87.20;102048.22;5052922;28;20458;-73
2023/04/10 01:07:09;;;;;;;13.57;8.93;;;;;;;6.81;87.07;102048.16;5052835;28;20029;-74
2023/04/10 01:09:45;;;;;;;;;;;;;;;6.81;86.94;102048.16;5053158;28;20029;-74
2023/04/10 01:12:33;;;;;;;14.02;10.00;;;;;;;6.80;86.79;102049.06;5052900;28;19967;-74
2023/04/10 01:15:12;;;;;;;14.18;9.57;;;;;;;6.79;86.78;102049.94;5052977;28;20016;-74
2023/04/10 01:18:23;;;;;;;14.40;9.73;;;;;;;6.77;86.78;102043.97;5052726;28;20029;-74
2023/04/10 01:20:48;;;;;;;14.20;9.50;;;;;;;6.48;87.27;101985.75;4991432;28;20109;-74
2023/04/10 01:23:41;;;;;;;13.98;9.45;;;;;;;6.72;87.49;102033.84;4990995;28;20110;-73
2023/04/10 01:26:09;;;;;;;15.43;9.68;;;;;;;6.72;87.43;102038.16;4991181;28;20034;-79
2023/04/10 01:29:02;;;;;;;12.75;8.98;;;;;;;6.71;86.84;102033.91;4991268;28;20038;-74
2023/04/10 01:31:50;;;;;;;12.98;9.10;;;;;;;6.64;87.55;102016.97;4991411;28;20157;-78
2023/04/10 01:34:24;;;;;;;14.50;9.20;;;;;;;6.64;86.76;102015.25;4991232;28;20034;-74
2023/04/10 01:36:54;;;;;;;13.57;9.07;;;;;;;6.75;87.59;102027.78;4991082;28;20097;-74
2023/04/10 01:39:21;;;;;;;14.75;9.10;;;;;;;6.67;87.99;102016.88;4991122;28;20118;-78
2023/04/10 01:41:51;;;;;;;14.90;9.32;;;;;;;6.75;87.16;102025.22;4974771;28;20452;-78
2023/04/10 01:44:18;;;;;;;14.60;9.68;;;;;;;6.57;86.53;101995.75;4991130;28;20046;-76
2023/04/10 01:46:45;;;;;;;13.73;9.40;;;;;;;6.79;86.20;102017.41;4991105;28;20034;-74
2023/04/10 01:49:13;;;;;;;13.80;9.43;;;;;;;6.79;86.50;102012.28;4991200;28;20076;-74
2023/04/10 01:51:38;;;;;;;13.18;9.05;;;;;;;6.69;87.04;101997.16;4991059;28;20026;-74
2023/04/10 01:54:04;;;;;;;13.35;8.63;;;;;;;6.68;86.81;101998.03;5007789;28;20044;-74
2023/04/10 01:56:31;;;;;;;12.98;9.32;;;;;;;6.74;86.58;102000.44;5052363;28;20103;-74
2023/04/10 01:58:57;;;;;;;13.77;8.85;;;;;;;6.73;87.12;102003.88;5052309;28;20053;-74
2023/04/10 02:01:23;;;;;;;14.85;9.48;;;;;;;6.51;87.33;101965.16;5052437;28;20024;-73
2023/04/10 02:03:48;;;;;;;12.63;8.88;;;;;;;6.52;87.67;101971.97;5052268;28;20044;-74
2023/04/10 02:06:31;;;;;;;13.18;9.63;;;;;;;6.47;87.64;101964.38;5051956;28;20040;-73
2023/04/10 02:09:16;;;;;;;14.32;9.60;;;;;;;6.60;87.75;101988.84;5052343;28;20477;-74
2023/04/10 02:12:00;;;;;;;14.38;10.13;;;;;;;6.48;87.95;101963.50;5052370;28;20086;-74
2023/04/10 02:14:28;;;;;;;15.77;10.38;;;;;;;6.57;88.00;101980.38;5052107;28;20021;-75
2023/04/10 02:16:55;;;;;;;14.98;10.38;;;;;;;6.56;87.81;101978.69;5052160;28;20033;-74
2023/04/10 02:19:23;;;;;;;14.48;9.88;;;;;;;6.38;88.89;101956.09;5053543;28;20468;-73
2023/04/10 02:21:50;;;;;;;16.65;10.30;;;;;;;6.51;88.53;101975.41;5055925;28;20104;-74
2023/04/10 02:24:16;;;;;;;14.45;9.98;;;;;;;6.46;88.75;101972.13;5055867;28;20036;-74
2023/04/10 02:26:49;;;;;;;13.25;10.10;;;;;;;6.49;88.38;101970.34;5055838;28;20032;-74
2023/04/10 02:29:14;;;;;;;14.02;10.25;;;;;;;6.42;89.09;101961.13;5055773;28;20033;-74
2023/04/10 02:31:40;;;;;;;14.82;9.43;;;;;;;6.39;88.91;101961.22;5055828;28;20024;-74
2023/04/10 02:34:06;;;;;;;14.80;10.60;;;;;;;6.42;88.86;101970.53;5055716;28;20104;-73
2023/04/10 02:36:32;;;;;;;14.98;9.60;;;;;;;6.33;89.30;101957.06;5055808;28;20021;-74
2023/04/10 02:38:57;;;;;;;14.00;9.98;;;;;;;6.42;89.19;101968.81;5055573;28;20025;-75
2023/04/10 02:41:23;;;;;;;14.63;10.45;;;;;;;6.33;89.74;101967.34;5055623;28;20031;-73
2023/04/10 02:43:48;;;;;;;14.20;9.88;;;;;;;6.26;89.99;101959.84;5055303;28;20428;-74
2023/04/10 02:46:14;;;;;;;14.02;10.48;;;;;;;6.27;90.04;101969.22;5055684;28;20037;-74
2023/04/10 02:48:39;;;;;;;15.65;10.32;;;;;;;6.22;90.69;101961.66;5055620;28;20068;-77
2023/04/10 02:51:05;;;;;;;15.43;10.73;;;;;;;6.22;90.43;101965.94;5055621;28;20036;-73
2023/04/10 02:53:32;;;;;;;13.70;10.07;;;;;;;6.16;90.92;101961.81;5055170;28;20025;-79
2023/04/10 02:55:57;;;;;;;14.88;10.50;;;;;;;6.15;91.03;101956.72;5055367;28;20036;-74
2023/04/10 02:58:23;;;;;;;13.30;10.15;;;;;;;6.13;91.13;101953.38;5055267;28;20045;-74
2023/04/10 03:00:49;;;;;;;16.50;11.05;;;;;;;5.87;91.45;101918.09;5055155;28;20028;-74
2023/04/10 03:03:15;;;;;;;14.95;10.00;;;;;;;6.00;91.24;101943.44;5055283;28;20107;-74
2023/04/10 03:05:41;;;;;;;15.18;10.38;;;;;;;6.11;92.00;101962.81;5055253;28;20174;-74
2023/04/10 03:08:06;;;;;;;13.48;9.85;;;;;;;6.07;92.29;101974.88;5055252;28;20525;-74
2023/04/10 03:10:32;;;;;;;14.63;9.70;;;;;;;5.97;92.74;101966.56;5055304;28;20032;-74
2023/04/10 03:12:57;;;;;;;14.50;10.30;;;;;;;5.96;93.06;101972.56;5055263;28;20469;-74
2023/04/10 03:15:22;;;;;;;13.63;9.50;;;;;;;5.88;93.42;101969.31;5037218;28;20037;-74
2023/04/10 03:17:47;;;;;;;14.43;10.18;;;;;;;5.87;93.26;101974.50;5054866;28;20125;-74
2023/04/10 03:20:14;;;;;;;14.55;10.32;;;;;;;5.88;93.31;101976.19;5054742;28;20457;-74
2023/04/10 03:22:39;;;;;;;17.00;10.73;;;;;;;5.76;93.92;101965.34;5055023;28;20035;-75
2023/04/10 03:25:05;;;;;;;15.32;9.20;;;;;;;5.66;92.99;101956.22;5054800;28;20456;-75
2023/04/10 03:27:33;;;;;;;14.90;10.73;;;;;;;5.77;93.19;101973.88;5054821;28;20465;-77
2023/04/10 03:29:59;;;;;;;15.43;10.65;;;;;;;5.75;93.48;101973.94;5054259;28;20104;-78
2023/04/10 03:32:26;;;;;;;15.55;10.70;;;;;;;5.73;93.12;101969.72;5054051;28;20031;-75
2023/04/10 03:34:54;;;;;;;15.43;11.18;;;;;;;5.68;94.37;101966.41;5053980;28;20083;-74
2023/04/10 03:37:19;;;;;;;14.88;10.32;;;;;;;5.64;94.74;101962.25;5054653;28;20473;-75
2023/04/10 03:39:45;;;;;;;17.55;11.43;;;;;;;5.56;94.14;101962.44;5054299;28;20116;-79
2023/04/10 03:42:10;;;;;;;16.80;11.02;;;;;;;5.57;94.57;101953.88;5054447;28;20064;-74
2023/04/10 03:44:36;;;;;;;15.40;11.05;;;;;;;5.48;94.98;101948.97;5054307;28;20108;-74
2023/04/10 03:47:02;;;;;;;15.13;10.32;;;;;;;5.39;94.78;101950.03;5036784;28;20053;-74
2023/04/10 03:49:27;;;;;;;15.40;11.20;;;;;;;5.40;95.28;101943.19;5054599;28;20052;-74
2023/04/10 03:51:53;;;;;;;14.43;10.65;;;;;;;5.36;95.52;101947.53;5054384;28;20039;-73
2023/04/10 03:54:18;;;;;;;16.17;11.13;;;;;;;5.35;95.58;101943.28;5054191;28;20020;-74
2023/04/10 03:56:43;;;;;;;15.07;11.05;;;;;;;5.35;94.86;101943.28;5054086;28;20064;-75
2023/04/10 03:59:09;;;;;;;15.48;11.25;;;;;;;5.17;96.01;101925.78;5053932;28;20068;-74
2023/04/10 04:01:34;;;;;;;16.75;11.57;;;;;;;5.28;95.96;101946.88;5053966;28;20055;-74
2023/04/10 04:04:00;;;;;;;16.08;11.70;;;;;;;5.27;95.52;101940.06;5054371;28;20167;-75
2023/04/10 04:06:26;;;;;;;15.32;11.13;;;;;;;5.21;95.72;101931.69;5054047;28;20035;-78
2023/04/10 04:08:51;;;;;;;15.80;11.70;;;;;;;5.23;95.95;101933.34;5053878;28;20036;-79
2023/04/10 04:11:16;;;;;;;14.93;11.27;;;;;;;5.00;96.08;101905.69;5054124;28;20021;-79
2023/04/10 04:13:42;;;;;;;17.23;11.98;;;;;;;5.14;96.23;101931.00;5053692;28;20025;-75
2023/04/10 04:16:08;;;;;;;16.98;12.20;;;;;;;5.12;96.58;101932.75;5053895;28;20021;-74
2023/04/10 04:18:33;;;;;;;15.55;11.63;;;;;;;4.99;96.65;101916.81;5053670;28;20118;-74
2023/04/10 04:20:59;;;;;;;18.88;12.60;;;;;;;5.11;96.62;101936.16;5053834;28;20474;-74
2023/04/10 04:23:24;;;;;;;16.92;12.20;;;;;;;4.99;97.01;101913.41;5053563;28;20044;-73
2023/04/10 04:25:51;;;;;;;15.80;12.27;;;;;;;4.93;96.92;101909.28;5053209;28;20249;-74
2023/04/10 04:28:17;;;;;;;17.38;11.65;;;;;;;5.06;97.24;101920.91;5053675;28;20029;-74
2023/04/10 04:30:42;;;;;;;16.92;12.68;;;;;;;5.06;96.62;101922.63;5053620;28;20086;-75
2023/04/10 04:33:07;;;;;;;17.27;12.70;;;;;;;5.07;96.24;101912.34;5053457;28;20342;-73
2023/04/10 04:35:33;;;;;;;16.35;11.63;;;;;;;5.09;96.56;101923.41;5053684;28;20489;-74
2023/04/10 04:37:58;;;;;;;16.40;11.98;;;;;;;5.13;95.97;101919.91;5053489;28;20477;-73
2023/04/10 04:40:23;;;;;;;15.63;11.68;;;;;;;5.19;95.38;101921.47;5053234;28;20025;-74
2023/04/10 04:42:49;;;;;;;17.48;12.10;;;;;;;4.98;94.72;101878.44;5052831;28;20016;-74
2023/04/10 04:45:14;;;;;;;16.48;12.13;;;;;;;5.26;94.46;101917.91;5053174;28;20043;-75
2023/04/10 04:47:39;;;;;;;16.67;11.70;;;;;;;5.29;94.62;101905.00;5053275;28;20104;-73
2023/04/10 04:50:05;;;;;;;15.13;10.70;;;;;;;5.35;93.51;101904.03;5053074;28;20020;-74
2023/04/10 04:52:31;;;;;;;15.32;11.32;;;;;;;5.41;93.68;101903.91;5053505;28;20041;-74
2023/04/10 04:54:56;;;;;;;15.50;11.07;;;;;;;5.42;93.47;101901.31;5053142;28;20499;-74
2023/04/10 04:57:21;;;;;;;15.38;10.75;;;;;;;5.46;92.84;101899.50;5035374;28;20040;-75
2023/04/10 04:59:47;;;;;;;13.90;10.50;;;;;;;5.46;92.21;101900.34;5052647;28;20090;-75
2023/04/10 05:02:12;;;;;;;15.40;11.00;;;;;;;5.53;91.73;101902.75;5053103;28;20082;-75
2023/04/10 05:04:37;;;;;;;17.13;10.63;;;;;;;5.55;91.75;101906.13;5052868;28;20051;-73
2023/04/10 05:07:03;;;;;;;15.88;11.15;;;;;;;5.57;90.82;101900.06;5052882;28;20036;-75
2023/04/10 05:09:28;;;;;;;15.25;11.27;;;;;;;5.52;91.56;101881.41;5052804;28;20028;-73
2023/04/10 05:11:54;;;;;;;17.00;11.65;;;;;;;5.61;91.09;101893.16;5052921;28;20044;-73
2023/04/10 05:14:21;;;;;;;14.48;10.45;;;;;;;5.39;91.18;101850.13;5052964;28;20481;-73
2023/04/10 05:16:46;;;;;;;16.98;11.02;;;;;;;5.64;90.63;101881.09;5052914;28;20028;-73
2023/04/10 05:19:11;;;;;;;15.82;11.18;;;;;;;5.61;90.37;101867.53;5052950;28;20017;-73
2023/04/10 05:21:37;;;;;;;14.88;10.10;;;;;;;5.72;90.76;101873.22;5052825;28;20052;-74
2023/04/10 05:24:02;;;;;;;15.18;11.25;;;;;;;5.75;90.75;101871.41;5052615;28;20029;-74
2023/04/10 05:26:27;;;;;;;14.43;11.25;;;;;;;5.69;88.98;101857.91;5052708;28;20021;-73
2023/04/10 05:28:54;;;;;;;14.27;10.13;;;;;;;5.93;88.98;101875.25;5052769;28;20045;-74
2023/04/10 05:31:20;;;;;;;16.05;10.43;;;;;;;5.99;89.55;101872.50;5052828;28;20021;-74
2023/04/10 05:33:45;;;;;;;14.95;10.27;;;;;;;6.00;88.56;101851.13;5052596;28;20033;-73
2023/04/10 05:36:11;;;;;;;16.13;11.27;;;;;;;6.11;87.92;101855.97;5052708;28;20028;-74
2023/04/10 05:38:37;;;;;;;14.68;10.48;;;;;;;6.28;87.62;101869.13;5052592;28;20039;-74
2023/04/10 05:41:02;;;;;;;16.35;11.25;;;;;;;6.46;86.62;101880.59;5052697;28;20033;-75
2023/04/10 05:43:27;;;;;;;16.30;11.13;;;;;;;6.55;86.18;101875.19;5052689;28;20075;-75
2023/04/10 05:45:52;;;;;;;14.38;10.15;;;;;;;6.64;85.52;101870.69;5052453;28;20033;-77
2023/04/10 05:48:18;;;;;;;13.98;10.63;;;;;;;6.72;84.92;101869.56;5052415;28;20025;-75
2023/04/10 05:50:43;;;;;;;15.50;10.20;;;;;;;6.76;84.05;101849.75;5052506;28;20094;-78
2023/04/10 05:53:13;;;;;;;15.25;10.07;;;;;;;6.90;83.99;101865.59;5052450;28;20025;-75
2023/04/10 05:55:39;;;;;;;13.35;10.27;;;;;;;7.06;83.74;101878.78;5056008;28;20064;-72
2023/04/10 05:58:06;;;;;;;14.95;9.85;;;;;;;7.02;82.73;101864.38;5056411;28;20489;-76
2023/04/10 06:00:32;;;;;;;14.18;10.25;;;;;;;7.25;82.72;101876.47;5056602;28;20041;-75
2023/04/10 06:02:57;;;;;;;13.77;10.05;;;;;;;7.35;82.08;101881.25;5056452;28;20037;-75
2023/04/10 06:05:22;;;;;;;14.63;10.30;;;;;;;7.40;81.66;101860.56;5056371;28;20029;-74
2023/04/10 06:07:48;;;;;;;14.32;10.18;;;;;;;7.61;81.53;101857.28;5056111;28;20504;-76
2023/04/10 06:10:13;;;;;;;14.20;9.73;;;;;;;7.64;80.33;101846.03;5056094;28;20025;-75
2023/04/10 06:12:38;;;;;;;14.32;10.68;;;;;;;7.96;79.89;101886.91;5056330;28;20029;-74
2023/04/10 06:15:04;;;;;;;14.40;9.30;;;;;;;7.74;79.96;101814.81;5056435;28;20397;-75
2023/04/10 06:17:29;;;;;;;12.77;9.90;;;;;;;8.24;79.10;101876.47;5056340;28;20390;-75
2023/04/10 06:19:55;;;;;;;13.73;10.30;;;;;;;8.39;78.99;101872.53;5055974;28;20106;-74
2023/04/10 06:22:21;;;;;;;13.13;9.30;;;;;;;8.48;78.14;101866.19;5055954;28;20040;-73
2023/04/10 06:24:46;;;;;;;13.70;10.00;;;;;;;8.55;78.33;101865.06;5055859;28;20025;-74
2023/04/10 06:27:11;;;;;;;13.57;9.68;;;;;;;8.62;78.19;101863.94;5055841;28;20033;-75
2023/04/10 06:29:37;;;;;;;13.38;9.02;;;;;;;8.74;77.10;101854.88;5049511;28;20045;-73
2023/04/10 06:32:02;;;;;;;12.93;9.23;;;;;;;8.83;76.10;101857.09;5055923;28;20032;-72
2023/04/10 06:34:28;;;;;;;12.25;9.32;;;;;;;8.78;75.92;101836.69;5056182;28;20466;-79
2023/04/10 06:36:53;;;;;;;13.68;8.15;;;;;;;8.87;74.69;101848.38;5055660;28;20106;-72
2023/04/10 06:39:18;;;;;;;10.70;8.52;;;;;;;8.88;74.78;101843.16;5055303;28;20036;-72
2023/04/10 06:41:44;;;;;;;12.30;9.10;;;;;;;8.81;74.87;101817.69;5055198;28;20037;-76
2023/04/10 06:44:09;;;;;;;12.00;8.65;;;;;;;8.91;74.13;101826.75;5053738;28;20037;-74
2023/04/10 06:46:34;;;;;;;14.68;9.00;;;;;;;9.00;74.69;101833.25;5055426;28;20040;-73
2023/04/10 06:49:00;;;;;;;11.32;8.93;;;;;;;9.07;74.04;101827.81;5055356;28;20029;-75
2023/04/10 06:51:26;;;;;;;11.93;8.48;;;;;;;9.09;74.12;101809.69;5055437;28;20039;-76
2023/04/10 06:53:51;;;;;;;12.32;9.38;;;;;;;8.87;72.44;101769.38;5054740;28;20032;-73
2023/04/10 06:56:17;;;;;;;11.00;7.75;;;;;;;9.23;72.62;101815.13;5055107;28;20041;-76
2023/04/10 06:58:42;;;;;;;16.75;8.40;;;;;;;9.33;72.44;101807.84;5055047;28;20455;-75
2023/04/10 07:01:07;;;;;;;11.60;8.18;;;;;;;9.40;71.58;101799.78;5055116;28;20069;-75
2023/04/10 07:03:32;;;;;;;12.10;8.63;;;;;;;9.43;71.37;101789.34;5037318;28;20032;-76
2023/04/10 07:05:58;;;;;;;11.55;7.55;;;;;;;9.46;71.34;101780.66;5054757;28;20035;-77
2023/04/10 07:08:24;;;;;;;11.10;8.13;;;;;;;9.54;70.61;101788.03;5054966;28;20060;-76
2023/04/10 07:10:49;;;;;;;10.95;8.07;;;;;;;9.65;70.97;101793.59;5054793;28;20043;-75
2023/04/10 07:13:15;;;;;;;12.45;8.48;;;;;;;9.61;70.09;101769.66;5054995;28;20484;-76
2023/04/10 07:15:41;;;;;;;13.82;8.70;;;;;;;9.64;70.22;101753.22;5054893;28;20043;-76
2023/04/10 07:18:06;;;;;;;12.55;8.43;;;;;;;9.90;68.97;101772.69;5103552;22;20053;-73
2023/04/10 07:20:31;;;;;;;12.40;8.50;;;;;;;9.97;68.09;101776.66;5054758;28;20032;-75
2023/04/10 07:22:57;;;;;;;11.50;8.82;;;;;;;9.98;68.35;101766.28;5054603;28;20516;-75
2023/04/10 07:25:25;;;;;;;13.05;8.05;;;;;;;10.11;67.31;101768.28;5054523;28;20020;-75
2023/04/10 07:27:50;;;;;;;14.02;8.45;;;;;;;10.19;67.93;101758.44;5054685;28;20104;-75
2023/04/10 07:30:15;;;;;;;12.00;8.77;;;;;;;10.25;66.09;101746.13;5054654;28;20037;-76
2023/04/10 07:32:41;;;;;;;11.60;8.60;;;;;;;10.18;66.53;101720.66;5054519;28;20066;-74
2023/04/10 07:35:07;;;;;;;11.13;8.23;;;;;;;10.38;65.77;101741.22;5054714;28;20036;-75
2023/04/10 07:37:32;;;;;;;12.07;8.63;;;;;;;10.53;65.62;101750.84;5053993;28;20041;-75
2023/04/10 07:39:57;;;;;;;12.55;8.63;;;;;;;10.51;64.67;101731.13;5054428;28;20021;-76
2023/04/10 07:42:23;;;;;;;10.85;8.10;;;;;;;10.53;65.03;101711.25;5054328;28;20029;-76
2023/04/10 07:44:48;;;;;;;11.65;8.70;;;;;;;10.73;64.48;101736.97;5054287;28;20029;-76
2023/04/10 07:47:13;;;;;;;12.55;9.02;;;;;;;10.72;64.35;101719.78;5052515;28;20055;-76
2023/04/10 07:49:39;;;;;;;11.73;8.38;;;;;;;10.94;64.56;101723.88;5054650;28;20032;-76
2023/04/10 07:52:05;;;;;;;13.23;9.15;;;;;;;11.04;63.64;101718.16;5035952;28;20037;-80
2023/04/10 07:54:32;;;;;;;10.93;8.13;;;;;;;11.10;63.17;101707.50;5054227;28;20021;-75
2023/04/10 07:56:57;;;;;;;12.00;8.93;;;;;;;11.28;62.30;101710.06;5053752;28;20032;-75
2023/04/10 07:59:27;;;;;;;11.60;8.80;;;;;;;11.52;62.95;101702.78;5035870;28;20037;-74
2023/04/10 08:01:55;;;;;;;13.23;8.40;;;;;;;11.67;61.38;101687.25;5053961;28;20079;-77
2023/04/10 08:04:23;;;;;;;9.70;7.35;;;;;;;11.91;61.35;101699.84;5052412;28;20136;-76
2023/04/10 08:06:49;;;;;;;10.75;7.60;;;;;;;12.13;60.68;101699.50;5053921;28;20037;-75
2023/04/10 08:09:14;;;;;;;11.65;8.43;;;;;;;12.32;59.92;101688.03;5053982;28;20027;-78
2023/04/10 08:11:40;;;;;;;9.65;7.28;;;;;;;12.42;57.82;101690.09;5052534;28;20053;-77
2023/04/10 08:14:05;;;;;;;10.27;7.78;;;;;;;12.61;58.30;101695.88;5053933;28;20108;-76
2023/04/10 08:16:33;;;;;;;10.07;7.28;;;;;;;12.50;57.56;101677.53;5052731;28;20051;-76
2023/04/10 08:18:59;;;;;;;10.38;7.40;;;;;;;12.52;56.51;101683.47;5053922;28;20037;-76
2023/04/10 08:21:26;;;;;;;9.48;7.28;;;;;;;12.58;56.91;101685.69;5053770;28;20017;-78
2023/04/10 08:23:54;;;;;;;9.48;7.30;;;;;;;12.53;57.06;101669.56;5053676;28;20425;-76
2023/04/10 08:26:20;;;;;;;9.98;7.47;;;;;;;12.44;56.81;101647.63;5053602;28;20024;-76
2023/04/10 08:28:50;;;;;;;11.98;7.30;;;;;;;12.57;56.92;101674.47;5053782;28;20388;-77
2023/04/10 08:31:21;;;;;;;11.10;7.28;;;;;;;12.67;57.35;101698.09;5053556;28;20071;-76
2023/04/10 08:33:47;;;;;;;10.63;7.43;;;;;;;12.77;57.97;101685.44;5052628;28;20029;-78
2023/04/10 08:36:16;;;;;;;10.18;7.85;;;;;;;12.81;56.92;101687.78;5053736;28;20307;-76
2023/04/10 08:38:45;;;;;;;9.80;7.72;;;;;;;13.03;56.18;101683.91;5053112;28;20469;-79
2023/04/10 08:41:11;;;;;;;10.82;7.43;;;;;;;13.19;56.37;101682.13;5052976;28;20139;-78
2023/04/10 08:43:38;;;;;;;11.93;7.13;;;;;;;13.39;56.29;101671.38;5052387;28;20048;-76
2023/04/10 08:46:04;;;;;;;10.23;8.00;;;;;;;13.48;56.10;101638.84;5053121;28;20496;-75
2023/04/10 08:48:44;;;;;;;10.00;7.15;;;;;;;13.73;56.40;101662.31;5053367;28;20394;-75
2023/04/10 08:51:14;;;;;;;9.15;7.22;;;;;;;13.54;54.46;101632.41;5053081;28;20037;-78
2023/04/10 08:53:42;;;;;;;9.85;7.00;;;;;;;13.36;54.43;101642.16;5051435;28;20029;-76
2023/04/10 08:56:15;;;;;;;9.43;7.20;;;;;;;13.32;54.88;101664.03;5053160;28;20401;-74
2023/04/10 08:58:41;;;;;;;10.38;7.53;;;;;;;13.25;55.88;101660.97;5051703;28;20037;-82
2023/04/10 09:01:08;;;;;;;11.20;7.55;;;;;;;13.12;55.82;101645.31;5053168;28;20036;-78
2023/04/10 09:03:33;;;;;;;9.55;7.78;;;;;;;13.27;55.97;101661.72;5053192;28;20108;-80
2023/04/10 09:06:03;;;;;;;10.05;7.32;;;;;;;13.33;56.73;101661.34;5052844;28;20111;-77
2023/04/10 09:08:29;;;;;;;9.32;6.82;;;;;;;13.36;55.99;101660.31;5052788;28;20028;-77
2023/04/10 09:10:54;;;;;;;10.40;7.72;;;;;;;13.40;56.20;101641.91;5052906;28;20029;-77
2023/04/10 09:13:42;;;;;;;9.40;6.90;;;;;;;13.63;56.54;101645.66;5052830;28;20032;-76
2023/04/10 09:16:09;;;;;;;9.07;6.60;;;;;;;13.65;55.77;101651.56;5052891;28;20405;-76
2023/04/10 09:18:46;;;;;;;10.10;7.45;;;;;;;13.55;55.40;101629.72;5052643;28;20095;-76
2023/04/10 09:21:14;;;;;;;14.68;7.78;;;;;;;13.31;55.09;101590.59;5052353;28;20021;-77
2023/04/10 09:23:42;;;;;;;10.23;7.60;;;;;;;13.52;55.88;101634.28;5052554;28;20470;-82
2023/04/10 09:26:27;;;;;;;10.00;7.18;;;;;;;13.61;56.96;101633.69;5068781;22;20061;-75
2023/04/10 09:29:06;;;;;;;10.60;7.45;;;;;;;13.55;56.11;101623.69;5032620;28;20049;-75
2023/04/10 09:31:36;;;;;;;10.13;7.35;;;;;;;13.55;56.57;101634.06;5032399;28;20026;-76
2023/04/10 09:34:10;;;;;;;9.88;7.22;;;;;;;13.52;56.78;101616.94;5032548;28;20057;-75
2023/04/10 09:36:36;;;;;;;9.93;7.68;;;;;;;13.31;55.88;101590.59;5047885;28;20048;-76
2023/04/10 09:39:02;;;;;;;8.40;6.75;;;;;;;13.37;56.22;101576.38;5032490;28;20035;-75
2023/04/10 09:41:27;;;;;;;9.73;6.97;;;;;;;13.69;56.80;101605.50;5032467;28;20471;-76
2023/04/10 09:44:08;;;;;;;10.95;7.25;;;;;;;13.58;55.91;101562.06;5032333;28;20022;-76
2023/04/10 09:46:34;;;;;;;9.93;6.70;;;;;;;13.75;56.37;101577.38;5032553;28;20482;-75
2023/04/10 09:49:08;;;;;;;9.60;6.75;;;;;;;13.91;54.67;101589.38;5031305;28;20025;-76
2023/04/10 09:51:34;;;;;;;10.88;7.80;;;;;;;13.90;55.08;101569.53;5032492;28;20033;-76
2023/04/10 09:54:01;;;;;;;9.80;6.82;;;;;;;13.90;56.01;101572.97;5032354;28;20022;-77
2023/04/10 09:56:28;;;;;;;9.38;6.88;;;;;;;13.93;56.21;101577.97;5032255;28;20021;-76
2023/04/10 09:58:58;;;;;;;10.52;6.68;;;;;;;14.05;56.03;101577.16;5032220;28;20029;-77
2023/04/10 10:01:27;;;;;;;9.27;6.85;;;;;;;13.77;55.64;101536.59;5032468;28;20021;-76
2023/04/10 10:03:54;;;;;;;9.43;7.10;;;;;;;13.95;56.48;101550.13;5032203;28;20121;-77
2023/04/10 10:06:20;;;;;;;9.52;7.05;;;;;;;14.18;55.35;101564.19;5032181;28;20051;-77
2023/04/10 10:08:46;;;;;;;9.27;6.78;;;;;;;14.21;54.77;101532.00;5032278;28;20030;-75
2023/04/10 10:11:16;;;;;;;10.32;6.95;;;;;;;14.64;54.77;101561.13;5032012;28;20033;-78
2023/04/10 10:14:05;;;;;;;9.65;6.28;;;;;;;14.73;54.53;101565.69;5032375;28;20021;-76
2023/04/10 10:16:41;;;;;;;10.38;7.18;;;;;;;14.66;54.10;101561.88;5048931;22;20041;-77
2023/04/10 10:19:25;;;;;;;9.43;6.80;;;;;;;14.83;55.11;101551.13;5081888;22;20417;-78
2023/04/10 10:21:55;;;;;;;8.40;6.60;;;;;;;14.92;53.84;101537.47;5071981;28;20036;-77
2023/04/10 10:24:27;;;;;;;9.93;6.93;;;;;;;14.77;54.13;101483.13;5072232;28;20461;-76
2023/04/10 10:27:08;;;;;;;9.75;6.53;;;;;;;14.92;54.42;101471.63;5071971;28;20377;-83
2023/04/10 10:29:38;;;;;;;9.53;6.73;;;;;;;14.56;53.68;101371.94;5072094;28;20024;-75
2023/04/10 10:32:15;;;;;;;8.85;6.00;;;;;;;15.63;53.75;101519.44;5071913;28;20267;-76
2023/04/10 10:34:44;;;;;;;10.00;6.88;;;;;;;15.88;53.74;101516.72;5072223;28;20033;-76
2023/04/10 10:37:30;;;;;;;11.65;6.50;;;;;;;15.81;53.18;101499.03;5072309;28;20021;-76
2023/04/10 10:40:11;;;;;;;9.38;6.10;;;;;;;16.19;53.45;101517.03;5071033;28;20032;-75
2023/04/10 10:43:00;;;;;;;9.50;6.70;;;;;;;16.29;52.10;101511.00;5075666;28;20020;-76
2023/04/10 10:45:35;;;;;;;8.63;6.22;;;;;;;16.35;51.26;101497.50;5075424;28;20025;-76
2023/04/10 10:48:00;;;;;;;8.38;6.35;;;;;;;16.30;51.84;101476.16;5075546;28;20066;-77
2023/04/10 10:50:49;;;;;;;7.47;5.57;;;;;;;16.43;50.98;101489.09;5075457;28;20029;-76
2023/04/10 10:53:43;;;;;;;7.88;5.07;;;;;;;16.47;51.16;101484.47;5075397;28;20415;-75
2023/04/10 10:56:17;;;;;;;8.18;5.13;;;;;;;16.62;51.43;101470.25;5075610;28;20032;-75
2023/04/10 10:58:54;;;;;;;6.95;4.90;;;;;;;16.76;50.10;101456.16;5075381;28;20063;-77
2023/04/10 11:01:21;;;;;;;7.05;4.63;;;;;;;16.68;47.77;101467.19;5075344;28;20433;-76
2023/04/10 11:03:46;;;;;;;7.28;4.93;;;;;;;16.42;49.00;101434.44;5075294;28;20025;-76
2023/04/10 11:06:16;;;;;;;6.43;4.40;;;;;;;16.56;47.83;101462.91;5075294;28;20032;-76
2023/04/10 11:08:51;;;;;;;7.25;4.65;;;;;;;16.73;49.20;101462.44;5075375;28;20029;-76
2023/04/10 11:11:26;;;;;;;8.20;4.82;;;;;;;16.96;48.23;101451.97;5073911;28;20034;-75
2023/04/10 11:13:51;;;;;;;6.95;4.55;;;;;;;17.14;49.34;101459.16;5075027;28;20012;-75
2023/04/10 11:16:18;;;;;;;7.00;4.85;;;;;;;17.18;46.99;101439.66;5074922;28;20044;-74
2023/04/10 11:18:43;;;;;;;6.57;4.65;;;;;;;17.44;47.66;101444.56;5074631;28;20429;-75
2023/04/10 11:21:09;;;;;;;6.65;4.75;;;;;;;17.41;46.20;101431.75;5129153;22;20053;-73
2023/04/10 11:23:35;;;;;;;6.20;4.30;;;;;;;17.43;46.79;101419.41;5074906;28;20059;-75
2023/04/10 11:26:00;;;;;;;7.65;4.57;;;;;;;17.59;46.41;101427.59;5074808;28;20537;-76